Dirranbandi Airport


Codes: YDBI/DRN
Name: Dirranbandi Airport
City:
Country: Australia
Elevation: 567 ft.

Photos at Dirranbandi Airport


   Photos courtesy of SpottingLog. You can add your own sightings and photos by signing up for a free trial today.



No photos found.

Weather at Dirranbandi Airport


Time (UTC)DescriptionTempratureWindCloud coverageVisibilityPressureHumidity
17-Jun-2024 06:00Clear Sky14°C16 mph, SW0%10000m1017hPa32%
17-Jun-2024 09:00Clear Sky13°C9 mph, SW0%10000m1018hPa38%
17-Jun-2024 12:00Clear Sky10°C9 mph, SW1%10000m1019hPa49%
17-Jun-2024 15:00Clear Sky7°C9 mph, SW0%10000m1020hPa62%
17-Jun-2024 18:00Clear Sky6°C9 mph, SW0%10000m1020hPa69%
17-Jun-2024 21:00Scattered Clouds5°C7 mph, SW36%10000m1021hPa76%
18-Jun-2024 00:00Few Clouds11°C9 mph, SW20%10000m1021hPa53%
18-Jun-2024 03:00Scattered Clouds15°C11 mph, SW29%10000m1018hPa35%
18-Jun-2024 06:00Scattered Clouds15°C11 mph, SW33%10000m1017hPa32%
18-Jun-2024 09:00Broken Clouds11°C7 mph, SW83%10000m1018hPa45%
18-Jun-2024 12:00Broken Clouds9°C7 mph, SW70%10000m1019hPa51%
18-Jun-2024 15:00Broken Clouds9°C4 mph, SW53%10000m1019hPa52%
18-Jun-2024 18:00Broken Clouds10°C7 mph, SW63%10000m1019hPa47%
18-Jun-2024 21:00Overcast Clouds10°C2 mph, SW96%10000m1019hPa46%
19-Jun-2024 00:00Overcast Clouds12°C2 mph, NW100%10000m1019hPa44%
19-Jun-2024 03:00Overcast Clouds14°C4 mph, NW99%10000m1017hPa36%
19-Jun-2024 06:00Overcast Clouds17°C2 mph, W85%10000m1016hPa34%
19-Jun-2024 09:00Few Clouds12°C9 mph, E20%10000m1017hPa45%
19-Jun-2024 12:00Scattered Clouds13°C9 mph, NE34%10000m1017hPa43%
19-Jun-2024 15:00Overcast Clouds12°C11 mph, NE98%10000m1016hPa49%
19-Jun-2024 18:00Overcast Clouds14°C9 mph, NW98%10000m1015hPa41%
19-Jun-2024 21:00Overcast Clouds14°C9 mph, NW100%10000m1016hPa60%
20-Jun-2024 00:00Overcast Clouds17°C13 mph, W87%10000m1017hPa53%
20-Jun-2024 03:00Few Clouds20°C18 mph, W22%10000m1015hPa39%
20-Jun-2024 06:00Few Clouds20°C18 mph, W11%10000m1015hPa35%
20-Jun-2024 09:00Clear Sky14°C11 mph, W0%10000m1017hPa50%
20-Jun-2024 12:00Clear Sky12°C11 mph, SW1%10000m1019hPa50%
20-Jun-2024 15:00Overcast Clouds10°C9 mph, SW100%10000m1019hPa53%
20-Jun-2024 18:00Broken Clouds8°C9 mph, SW64%10000m1020hPa62%
20-Jun-2024 21:00Clear Sky7°C9 mph, SW9%10000m1022hPa67%
21-Jun-2024 00:00Clear Sky13°C9 mph, SW7%10000m1023hPa47%
21-Jun-2024 03:00Clear Sky16°C11 mph, SW4%10000m1021hPa35%
21-Jun-2024 06:00Clear Sky16°C9 mph, SW4%10000m1021hPa34%
21-Jun-2024 09:00Clear Sky11°C9 mph, S0%10000m1023hPa47%
21-Jun-2024 12:00Clear Sky10°C7 mph, S0%10000m1025hPa52%
21-Jun-2024 15:00Clear Sky9°C7 mph, S1%10000m1025hPa56%
21-Jun-2024 18:00Clear Sky8°C7 mph, S2%10000m1025hPa59%
21-Jun-2024 21:00Clear Sky7°C7 mph, S2%10000m1027hPa65%
22-Jun-2024 00:00Clear Sky13°C9 mph, S4%10000m1027hPa46%
22-Jun-2024 03:00Clear Sky16°C13 mph, S4%10000m1025hPa39%